Latest Coastal Weather Observations for Cape Naturaliste

IDW60701

Issued at 4:32 pm WST Saturday 4 July 2015 (issued every 10 minutes, with the page automatically refreshed every 10 minutes)

About coastal observations | Map of coastal stations | Coastal observations for WA | Marine services | Other Formats
Station Details ID: 009519 Name: CAPE NATURALISTE Lat: -33.54 Lon: 115.02 Height: 109.0 m
Data from the previous 72 hours. | See also: Recent months at Cape Naturaliste
Date/Time
WST
Temp

°C
Wind Pressure Rain
since 9am
mm
Weather Cloud Vis
km
Sea
Height
m
Swell
Dir
 
Speed
knots
Gust
knots
hPa Trend Height
m
Period
s
Dir
04/04:30pm 15.5 WSW 15 19 1020.1 - 0.0 - - - - - - -
04/04:00pm 17.2 W 12 15 1020.1 - 0.0 - - - - - - -
04/03:30pm 16.8 W 10 14 1020.1 - 0.0 - - - - - - -
04/03:00pm 16.9 W 12 17 1020.1 - 0.0 - - - - - - -
04/02:30pm 16.7 WSW 14 19 1020.1 - 0.0 - - - - - - -
04/02:00pm 16.5 W 17 21 1020.2 - 0.0 - - - - - - -
04/01:30pm 18.7 W 16 21 1020.2 - 0.0 - - - - - - -
04/01:00pm 18.8 W 14 19 1020.4 - 0.0 - - - - - - -
04/12:30pm 18.7 WNW 15 19 1020.9 - 0.0 - - - - - - -
04/12:00pm 19.2 W 13 17 1021.3 - 0.0 - - - - - - -
04/11:30am 18.2 W 13 17 1021.6 - 0.0 - - - - - - -
04/11:00am 18.6 W 13 18 1021.9 - 0.0 - - - - - - -
04/10:30am 16.8 W 15 20 1022.1 - 0.0 - - - - - - -
04/10:00am 17.7 WNW 14 19 1022.2 - 0.0 - - - - - - -
04/09:30am 17.2 W 11 15 1021.9 - 0.0 - - - - - - -
04/09:00am 16.9 W 13 17 1021.7 - 1.8 - - - - - - -
04/08:30am 16.3 W 11 14 1021.8 - 1.8 - - - - - - -
04/08:00am 15.5 WSW 11 14 1021.7 - 1.8 - - - - - - -
04/07:30am 15.0 WNW 9 14 1021.5 - 1.8 - - - - - - -
04/07:00am 15.5 W 11 14 1021.6 - 1.8 - - - - - - -
04/06:30am 15.7 W 13 18 1021.3 - 1.8 - - - - - - -
04/06:00am 15.4 W 10 13 1021.2 - 1.8 - - - - - - -
04/05:30am 15.1 WSW 8 11 1021.1 - 1.8 - - - - - - -
04/05:00am 15.2 SW 10 13 1021.2 - 1.8 - - - - - - -
04/04:30am 15.3 WSW 13 16 1021.3 - 1.8 - - - - - - -
04/04:00am 15.3 WSW 14 17 1021.5 - 1.8 - - - - - - -
04/03:30am 15.3 WSW 12 15 1021.7 - 1.8 - - - - - - -
04/03:00am 15.3 WSW 11 14 1021.7 - 1.8 - - - - - - -
04/02:30am 15.1 W 8 11 1022.0 - 1.8 - - - - - - -
04/02:00am 15.3 W 5 6 1022.1 - 1.8 - - - - - - -
04/01:30am 15.1 SSE 4 4 1022.2 - 1.8 - - - - - - -
04/01:00am 15.1 SSE 3 4 1022.2 - 1.8 - - - - - - -
04/12:30am 15.2 SSE 4 5 1022.4 - 1.8 - - - - - - -
04/12:00am 14.9 SSE 3 5 1022.5 - 1.8 - - - - - - -
 
Date/Time
WST
Temp

°C
Wind Pressure Rain
since 9am
mm
Weather Cloud Vis
km
Sea
Height
m
Swell
Dir
 
Speed
knots
Gust
knots
hPa Trend Height
m
Period
s
Dir
03/11:30pm 14.6 SSE 4 5 1022.6 - 1.8 - - - - - - -
03/11:00pm 14.4 SSE 4 4 1022.6 - 1.8 - - - - - - -
03/10:30pm 14.4 SSE 3 4 1022.8 - 1.8 - - - - - - -
03/10:00pm 14.3 SSE 4 5 1022.9 - 1.8 - - - - - - -
03/09:30pm 14.2 SSE 5 6 1022.9 - 1.8 - - - - - - -
03/09:00pm 14.2 SSE 5 5 1022.9 - 1.8 - - - - - - -
03/08:30pm 14.6 SSE 5 6 1022.8 - 1.8 - - - - - - -
03/08:00pm 14.6 SSE 6 7 1022.9 - 1.8 - - - - - - -
03/07:30pm 14.5 SSE 7 8 1022.8 - 1.8 - - - - - - -
03/07:00pm 14.2 SSE 6 7 1022.5 - 1.8 - - - - - - -
03/06:30pm 14.9 S 7 8 1022.6 - 1.8 - - - - - - -
03/06:00pm 15.1 S 7 8 1022.5 - 1.8 - - - - - - -
03/05:30pm 15.0 SSW 9 11 1022.4 - 1.8 - - - - - - -
03/05:00pm 15.5 S 8 10 1022.0 - 1.8 - - - - - - -
03/04:30pm 15.9 SSW 10 13 1022.0 - 1.8 - - - - - - -
03/04:00pm 16.3 SSW 11 15 1022.0 - 1.8 - - - - - - -
03/03:30pm 17.2 SSW 10 13 1021.8 - 1.8 - - - - - - -
03/03:00pm 17.2 SSW 9 13 1021.5 - 1.8 - - - - - - -
03/02:30pm 16.9 SSW 7 10 1021.5 - 1.8 - - - - - - -
03/02:00pm 17.0 SSW 8 10 1021.5 - 1.8 - - - - - - -
03/01:30pm 16.6 WNW 5 8 1021.7 - 1.8 - - - - - - -
03/01:00pm 16.3 NW 5 6 1021.9 - 1.4 - - - - - - -
03/12:30pm 16.8 WSW 4 6 1022.1 - 1.2 - - - - - - -
03/12:00pm 17.0 SW 7 9 1022.3 - 1.0 Recent precip. - - - - - -
03/11:30am 17.5 SW 6 8 1022.4 - 1.0 - - - - - - -
03/11:00am 16.7 WSW 6 11 1022.7 - 0.8 - - - - - - -
03/10:30am 17.1 SSW 7 9 1022.7 - 0.0 - - - - - - -
03/10:00am 17.0 SSW 8 11 1022.6 - 0.0 - - - - - - -
03/09:30am 17.6 WSW 7 9 1022.5 - 0.0 - - - - - - -
03/09:00am 16.6 SW 9 11 1022.3 - 11.8 - - - - - - -
03/08:30am 15.8 SW 8 10 1022.1 - 11.8 - - - - - - -
03/08:00am 16.2 WSW 7 9 1021.9 - 11.8 - - - - - - -
03/07:30am 16.1 SW 8 10 1021.6 - 11.6 - - - - - - -
03/07:00am 15.5 SW 8 10 1021.5 - 11.6 - - - - - - -
03/06:30am 15.8 SW 9 11 1021.2 - 11.6 - - - - - - -
03/06:00am 15.8 WSW 8 11 1021.0 - 11.6 - - - - - - -
03/05:30am 15.8 WSW 8 10 1020.8 - 11.6 - - - - - - -
03/05:00am 15.5 SW 8 9 1020.8 - 11.6 - - - - - - -
03/04:30am 15.5 SW 8 9 1020.8 - 11.6 - - - - - - -
03/04:00am 15.6 SW 7 10 1020.7 - 11.6 - - - - - - -
03/03:30am 15.1 SSW 4 5 1020.5 - 11.6 - - - - - - -
03/03:00am 15.5 SSW 4 5 1020.8 - 11.4 - - - - - - -
03/02:30am 15.9 SW 7 10 1020.7 - 11.4 - - - - - - -
03/02:00am 15.9 WSW 8 9 1020.9 - 11.4 - - - - - - -
03/01:30am 16.2 SW 6 7 1020.9 - 11.4 - - - - - - -
03/01:00am 16.2 SW 6 7 1021.1 - 11.4 - - - - - - -
03/12:30am 16.1 W 4 6 1021.1 - 11.4 - - - - - - -
03/12:00am 16.1 NW 5 6 1021.2 - 11.4 - - - - - - -
 
Date/Time
WST
Temp

°C
Wind Pressure Rain
since 9am
mm
Weather Cloud Vis
km
Sea
Height
m
Swell
Dir
 
Speed
knots
Gust
knots
hPa Trend Height
m
Period
s
Dir
02/11:30pm 15.5 NNW 4 5 1021.1 - 11.4 - - - - - - -
02/11:00pm 15.7 NNW 4 5 1021.3 - 11.4 - - - - - - -
02/10:30pm 15.6 NNW 5 7 1021.5 - 11.4 - - - - - - -
02/10:00pm 15.6 NW 7 8 1021.5 - 11.4 - - - - - - -
02/09:30pm 15.4 NW 7 9 1021.7 - 11.4 - - - - - - -
02/09:00pm 15.4 W 9 12 1021.4 - 11.4 Rain - - - - - -
02/08:30pm 16.5 W 9 11 1021.3 - 10.8 - - - - - - -
02/08:00pm 16.6 WSW 11 13 1021.2 - 10.8 - - - - - - -
02/07:30pm 16.7 W 9 11 1021.0 - 10.8 - - - - - - -
02/07:00pm 16.7 W 9 11 1020.7 - 10.8 - - - - - - -
02/06:30pm 16.6 WSW 11 14 1020.7 - 10.8 - - - - - - -
02/06:00pm 16.4 W 12 15 1020.3 - 10.8 Recent precip. - - - - - -
02/05:30pm 16.9 W 15 19 1020.1 - 10.4 - - - - - - -
02/05:00pm 16.6 NNW 7 11 1019.9 - 10.2 - - - - - - -
02/04:30pm 16.1 NNW 13 18 1019.8 - 4.0 - - - - - - -
02/04:00pm 17.7 N 12 15 1019.3 - 0.0 - - - - - - -
02/03:30pm 18.2 N 12 16 1019.6 - 0.0 - - - - - - -
02/03:00pm 18.4 N 12 15 1019.6 - 0.0 - - - - - - -
02/02:30pm 19.3 N 12 16 1019.5 - 0.0 - - - - - - -
02/02:00pm 18.9 N 13 17 1019.6 - 0.0 - - - - - - -
02/01:30pm 18.3 N 15 19 1019.6 - 0.0 - - - - - - -
02/01:00pm 18.8 N 16 20 1020.0 - 0.0 - - - - - - -
02/12:30pm 18.7 N 16 19 1020.3 - 0.0 - - - - - - -
02/12:00pm 18.4 N 15 19 1020.8 - 0.0 - - - - - - -
02/11:30am 18.5 N 15 20 1021.3 - 0.0 - - - - - - -
02/11:00am 18.3 NNE 17 22 1021.4 - 0.0 - - - - - - -
02/10:30am 18.7 NNE 18 23 1021.3 - 0.0 - - - - - - -
02/10:00am 18.7 NNE 17 21 1021.4 - 0.0 - - - - - - -
02/09:30am 18.3 NNE 15 20 1021.4 - 0.0 - - - - - - -
02/09:00am 17.0 NNE 16 20 1021.5 - 5.6 - - - - - - -
02/08:30am 16.5 NE 15 18 1021.3 - 5.6 - - - - - - -
02/08:00am 15.7 ENE 10 13 1021.2 - 5.6 - - - - - - -
02/07:30am 15.5 ENE 11 13 1021.1 - 5.6 - - - - - - -
02/07:00am 15.4 NE 12 15 1021.0 - 5.6 - - - - - - -
02/06:30am 15.3 ENE 11 13 1021.0 - 5.6 - - - - - - -
02/06:00am 15.2 ENE 11 14 1020.9 - 5.6 - - - - - - -
02/05:30am 15.2 NE 13 17 1021.1 - 5.6 - - - - - - -
02/05:00am 15.1 NE 15 19 1021.4 - 5.6 - - - - - - -
02/04:30am 15.1 NE 16 21 1021.4 - 5.6 - - - - - - -
02/04:00am 15.4 NE 16 21 1021.7 - 5.6 - - - - - - -
02/03:30am 15.9 NE 14 18 1021.8 - 5.4 - - - - - - -
02/03:00am 15.8 NE 12 15 1021.5 - 5.4 Recent precip. - - - - - -
02/02:30am 16.3 NE 13 16 1022.0 - 5.4 - - - - - - -
02/02:00am 14.9 NE 11 19 1021.9 - 5.2 - - - - - - -
02/01:30am 16.1 NE 11 15 1022.3 - 4.6 - - - - - - -
02/01:00am 16.3 NE 11 14 1022.7 - 4.6 - - - - - - -
02/12:30am 16.2 NNE 12 16 1022.8 - 4.4 - - - - - - -
02/12:00am 16.0 NE 9 12 1022.9 - 4.4 - - - - - - -
 
Date/Time
WST
Temp

°C
Wind Pressure Rain
since 9am
mm
Weather Cloud Vis
km
Sea
Height
m
Swell
Dir
 
Speed
knots
Gust
knots
hPa Trend Height
m
Period
s
Dir
01/11:30pm 15.8 ENE 9 11 1022.7 - 4.4 - - - - - - -
01/11:00pm 16.1 NE 11 13 1023.0 - 4.4 - - - - - - -
01/10:30pm 15.8 NNE 14 17 1023.4 - 4.0 - - - - - - -
01/10:00pm 15.7 NE 10 13 1023.3 - 4.0 - - - - - - -
01/09:30pm 15.0 N 11 14 1023.4 - 4.0 - - - - - - -
01/09:00pm 15.6 NNW 11 15 1023.5 - 4.0 Recent precip. - - - - - -
01/08:30pm 15.9 NNE 6 9 1023.5 - 4.0 - - - - - - -
01/08:00pm 15.8 N 14 18 1023.5 - 2.0 - - - - - - -
01/07:30pm 16.4 N 13 17 1023.1 - 0.6 - - - - - - -
01/07:00pm 17.2 NE 10 15 1022.7 - 0.4 - - - - - - -
01/06:30pm 17.2 NE 9 11 1022.7 - 0.4 - - - - - - -
01/06:00pm 17.2 NE 8 10 1022.6 - 0.4 - - - - - - -
01/05:30pm 17.0 NE 10 12 1022.5 - 0.4 - - - - - - -
01/05:00pm 16.9 NE 10 13 1022.5 - 0.4 - - - - - - -

Other Formats:

Comma delimited format used in spreadsheet applications
http://www.bom.gov.au/fwo/IDW60701/IDW60701.94600.axf

JavaScript Object Notation format (JSON) in row-major order
http://www.bom.gov.au/fwo/IDW60701/IDW60701.94600.json